Time;durP1;ratioP1;P1;durP2;ratioP2;P2;SDS_P1;SDS_P2;PMS_P1;PMS_P2;Temp;Humidity;BMP_temperature;BMP_pressure;BME280_temperature;BME280_humidity;BME280_pressure;Samples;Min_cycle;Max_cycle;Signal;HPM_P1;HPM_P2
2024/01/11 00:00:59;;;;;;;22.95;14.25;;;;;;;-2.38;76.54;103107.91;5231381;28;20037;-76
2024/01/11 00:03:31;;;;;;;24.95;13.55;;;;;;;-2.40;76.28;103117.28;5232403;28;20184;-76
2024/01/11 00:06:04;;;;;;;24.92;13.25;;;;;;;-2.39;78.70;103111.28;5232950;28;20499;-76
2024/01/11 00:08:35;;;;;;;22.88;13.13;;;;;;;-2.42;77.42;103113.88;5233175;28;20033;-76
2024/01/11 00:11:07;;;;;;;23.23;14.32;;;;;;;-2.48;77.70;103101.00;5232750;28;20048;-76
2024/01/11 00:13:39;;;;;;;25.65;13.35;;;;;;;-2.46;78.03;103105.28;5233437;28;20503;-76
2024/01/11 00:16:11;;;;;;;24.35;13.75;;;;;;;-2.42;78.27;103108.72;5234152;28;20036;-75
2024/01/11 00:18:44;;;;;;;26.40;14.77;;;;;;;-2.44;77.89;103107.84;5235788;28;20033;-75
2024/01/11 00:21:16;;;;;;;22.33;14.18;;;;;;;-2.51;77.94;103109.53;5234863;28;20034;-76
2024/01/11 00:23:49;;;;;;;22.10;13.32;;;;;;;-2.52;78.33;103114.66;5233090;28;20376;-76
2024/01/11 00:26:21;;;;;;;22.42;13.50;;;;;;;-2.62;78.52;103108.59;5233766;28;20059;-76
2024/01/11 00:28:53;;;;;;;23.60;13.35;;;;;;;-2.47;79.84;103115.53;5230855;28;20053;-75
2024/01/11 00:31:25;;;;;;;23.23;13.95;;;;;;;-2.53;78.56;103118.06;5232499;28;20053;-75
2024/01/11 00:33:57;;;;;;;23.85;14.48;;;;;;;-2.54;78.71;103121.47;5233613;28;20815;-75
2024/01/11 00:36:29;;;;;;;24.30;13.93;;;;;;;-2.58;80.45;103112.03;5231277;28;20075;-75
2024/01/11 00:39:01;;;;;;;22.17;12.98;;;;;;;-2.56;78.76;103107.78;5232112;28;20041;-76
2024/01/11 00:41:33;;;;;;;23.45;14.63;;;;;;;-2.59;79.36;103111.19;5231073;28;20041;-75
2024/01/11 00:44:05;;;;;;;25.95;14.95;;;;;;;-2.60;79.47;103109.47;5232488;28;20457;-75
2024/01/11 00:46:38;;;;;;;23.58;13.25;;;;;;;-2.61;79.71;103110.34;5232323;28;20029;-76
2024/01/11 00:49:10;;;;;;;21.25;14.23;;;;;;;-2.58;78.89;103104.34;5232246;28;20269;-76
2024/01/11 00:51:42;;;;;;;23.85;13.82;;;;;;;-2.57;79.81;103106.06;5230943;28;20614;-76
2024/01/11 00:54:14;;;;;;;24.67;15.18;;;;;;;-2.57;78.52;103111.22;5230785;28;20045;-75
2024/01/11 00:56:46;;;;;;;22.80;13.77;;;;;;;-2.65;79.32;103106.03;5231385;28;20052;-76
2024/01/11 00:59:17;;;;;;;23.67;14.75;;;;;;;-2.59;80.12;103123.16;5231506;28;20030;-75
2024/01/11 01:01:50;;;;;;;23.58;14.23;;;;;;;-2.56;78.44;103116.34;5232425;28;20315;-76
2024/01/11 01:04:22;;;;;;;23.00;13.82;;;;;;;-2.56;80.20;103112.91;5231198;28;20022;-76
2024/01/11 01:06:53;;;;;;;23.00;14.85;;;;;;;-2.59;79.94;103118.03;5231848;28;20418;-76
2024/01/11 01:09:25;;;;;;;25.75;14.23;;;;;;;-2.60;80.05;103117.19;5231449;28;20031;-75
2024/01/11 01:11:57;;;;;;;25.95;14.55;;;;;;;-2.62;79.46;103125.69;5231675;28;20292;-75
2024/01/11 01:14:29;;;;;;;24.75;14.70;;;;;;;-2.59;80.04;103120.59;5230297;28;20044;-75
2024/01/11 01:17:01;;;;;;;25.73;15.35;;;;;;;-2.59;79.92;103123.16;5230643;28;20399;-75
2024/01/11 01:19:33;;;;;;;22.83;14.30;;;;;;;-2.73;79.89;103120.50;5231036;28;20044;-75
2024/01/11 01:22:05;;;;;;;24.30;14.85;;;;;;;-2.64;79.52;103124.84;5230489;28;20044;-76
2024/01/11 01:24:37;;;;;;;23.42;15.25;;;;;;;-2.72;80.67;103133.34;5231855;28;20029;-76
2024/01/11 01:27:09;;;;;;;23.65;14.25;;;;;;;-2.66;80.05;103134.22;5231041;28;20394;-76
2024/01/11 01:29:40;;;;;;;26.88;15.18;;;;;;;-2.73;80.06;103129.06;5230512;28;20040;-75
2024/01/11 01:32:12;;;;;;;23.17;14.68;;;;;;;-2.64;80.06;103132.53;5231255;28;20033;-75
2024/01/11 01:34:44;;;;;;;27.48;14.70;;;;;;;-2.68;79.77;103138.50;5231996;28;20458;-75
2024/01/11 01:37:16;;;;;;;22.65;13.75;;;;;;;-2.65;79.66;103139.38;5229835;28;20049;-75
2024/01/11 01:39:48;;;;;;;25.88;16.05;;;;;;;-2.79;81.48;103138.41;5231052;28;20045;-76
2024/01/11 01:42:20;;;;;;;24.40;14.15;;;;;;;-2.79;80.98;103136.72;5228890;28;20045;-75
2024/01/11 01:44:52;;;;;;;24.10;14.93;;;;;;;-2.91;82.28;103128.06;5231817;28;20045;-75
2024/01/11 01:47:25;;;;;;;24.20;14.82;;;;;;;-2.80;81.46;103152.97;5229111;28;20033;-76
2024/01/11 01:49:57;;;;;;;25.17;14.73;;;;;;;-2.84;81.48;103163.16;5251061;23;20044;-76
2024/01/11 01:52:29;;;;;;;22.98;14.13;;;;;;;-2.98;83.21;103151.09;5256535;28;20028;-76
2024/01/11 01:55:03;;;;;;;26.42;14.95;;;;;;;-2.91;83.15;103161.41;5255986;28;20040;-76
2024/01/11 01:57:35;;;;;;;24.90;14.25;;;;;;;-3.01;84.88;103152.78;5255259;28;20035;-76
2024/01/11 02:00:10;;;;;;;22.58;13.95;;;;;;;-2.93;84.16;103169.06;5253308;28;20059;-76
2024/01/11 02:02:45;;;;;;;33.15;15.10;;;;;;;-2.94;84.12;103170.78;5256424;28;20021;-76
2024/01/11 02:05:18;;;;;;;20.85;14.73;;;;;;;-3.07;86.13;103156.16;5256961;28;20029;-76
2024/01/11 02:07:50;;;;;;;24.48;14.48;;;;;;;-3.00;85.48;103169.88;5255445;28;20043;-76
2024/01/11 02:10:23;;;;;;;25.67;14.05;;;;;;;-3.05;86.00;103148.47;5256451;28;20033;-76
2024/01/11 02:12:55;;;;;;;23.00;14.18;;;;;;;-3.01;85.29;103165.59;5256529;28;20032;-76
2024/01/11 02:15:27;;;;;;;25.75;14.35;;;;;;;-3.07;84.98;103145.91;5255642;28;20044;-76
2024/01/11 02:17:59;;;;;;;22.48;13.90;;;;;;;-3.05;85.14;103149.31;5255357;28;20040;-76
2024/01/11 02:20:31;;;;;;;26.58;15.38;;;;;;;-3.06;84.82;103144.19;5255310;28;20033;-76
2024/01/11 02:23:07;;;;;;;23.13;13.87;;;;;;;-3.03;85.28;103139.06;5255537;28;20045;-76
2024/01/11 02:25:39;;;;;;;23.27;14.45;;;;;;;-3.05;85.92;103148.47;5254543;28;20040;-76
2024/01/11 02:28:11;;;;;;;29.13;15.85;;;;;;;-3.10;86.03;103140.72;5254231;28;20394;-76
2024/01/11 02:30:43;;;;;;;23.67;13.90;;;;;;;-3.16;85.99;103138.09;5256227;28;20044;-76
2024/01/11 02:33:16;;;;;;;26.92;14.82;;;;;;;-3.14;88.08;103148.34;5254422;28;20044;-76
2024/01/11 02:35:48;;;;;;;22.73;13.93;;;;;;;-3.20;87.36;103142.34;5255001;28;20029;-76
2024/01/11 02:38:21;;;;;;;22.58;14.43;;;;;;;-3.23;87.85;103159.41;5255914;28;20517;-76
2024/01/11 02:40:54;;;;;;;22.42;15.38;;;;;;;-3.24;87.80;103167.94;5256771;28;20029;-76
2024/01/11 02:43:26;;;;;;;24.50;14.75;;;;;;;-3.26;88.91;103161.91;5249667;28;20474;-76
2024/01/11 02:45:59;;;;;;;23.90;14.70;;;;;;;-3.29;88.68;103165.34;5255665;28;20033;-76
2024/01/11 02:48:31;;;;;;;23.58;14.63;;;;;;;-3.40;88.24;103140.44;5251945;28;20052;-76
2024/01/11 02:51:03;;;;;;;26.90;14.80;;;;;;;-3.33;90.32;103160.13;5252890;28;20437;-76
2024/01/11 02:53:35;;;;;;;28.15;13.90;;;;;;;-3.38;88.92;103157.53;5250089;28;20834;-76
2024/01/11 02:56:07;;;;;;;24.20;14.18;;;;;;;-3.46;90.44;103148.91;5251935;28;20040;-76
2024/01/11 02:58:38;;;;;;;26.45;15.18;;;;;;;-3.39;89.96;103163.50;5252413;28;20064;-76
2024/01/11 03:01:10;;;;;;;22.02;14.88;;;;;;;-3.47;89.50;103152.31;5253180;28;20021;-76
2024/01/11 03:03:42;;;;;;;23.30;13.80;;;;;;;-3.44;89.51;103148.09;5269731;28;21114;-76
2024/01/11 03:06:14;;;;;;;26.83;15.32;;;;;;;-3.38;90.39;103160.09;5251665;28;20048;-76
2024/01/11 03:08:46;;;;;;;26.10;15.20;;;;;;;-3.40;90.36;103150.69;5254096;28;20036;-76
2024/01/11 03:11:18;;;;;;;26.67;14.98;;;;;;;-3.45;90.57;103145.50;5255028;28;20068;-76
2024/01/11 03:13:51;;;;;;;25.20;15.38;;;;;;;-3.46;92.97;103147.22;5255079;28;20126;-76
2024/01/11 03:16:23;;;;;;;22.83;14.63;;;;;;;-3.47;91.11;103148.06;5254652;28;20498;-76
2024/01/11 03:18:55;;;;;;;24.85;15.68;;;;;;;-3.43;91.56;103162.63;5254871;28;20037;-76
2024/01/11 03:21:27;;;;;;;24.75;15.23;;;;;;;-3.44;91.25;103157.50;5253324;28;20406;-76
2024/01/11 03:23:59;;;;;;;23.67;14.85;;;;;;;-3.42;90.97;103163.47;5253606;28;20587;-76
2024/01/11 03:26:31;;;;;;;20.73;12.27;;;;;;;-3.35;89.82;103159.28;5253403;28;20040;-76
2024/01/11 03:29:03;;;;;;;25.30;14.15;;;;;;;-3.45;90.01;103163.44;5253106;28;20041;-76
2024/01/11 03:31:35;;;;;;;25.15;14.65;;;;;;;-3.44;90.69;103157.50;5252261;28;20398;-76
2024/01/11 03:34:07;;;;;;;25.58;14.48;;;;;;;-3.41;91.61;103154.94;5251700;28;20025;-76
2024/01/11 03:36:40;;;;;;;26.30;15.82;;;;;;;-3.51;90.22;103137.75;5254685;28;20025;-76
2024/01/11 03:39:11;;;;;;;24.05;14.43;;;;;;;-3.52;90.56;103152.28;5258171;28;20033;-76
2024/01/11 03:41:44;;;;;;;23.67;14.90;;;;;;;-3.56;91.32;103154.78;5258046;28;20032;-76
2024/01/11 03:44:16;;;;;;;25.73;14.63;;;;;;;-3.54;91.98;103155.66;5271880;28;20492;-76
2024/01/11 03:46:48;;;;;;;25.52;14.60;;;;;;;-3.52;91.23;103157.41;5255126;28;20059;-76
2024/01/11 03:49:20;;;;;;;26.52;15.05;;;;;;;-3.56;91.64;103136.84;5254087;28;20037;-76
2024/01/11 03:51:52;;;;;;;26.63;15.60;;;;;;;-3.65;91.68;103129.06;5255560;28;20503;-76
2024/01/11 03:54:24;;;;;;;25.70;15.07;;;;;;;-3.56;92.46;103147.09;5255061;28;20025;-76
2024/01/11 03:56:56;;;;;;;27.30;15.02;;;;;;;-3.55;91.43;103146.28;5253097;28;20044;-76
2024/01/11 03:59:28;;;;;;;26.38;14.88;;;;;;;-3.57;91.50;103153.91;5254825;28;20029;-76
2024/01/11 04:02:00;;;;;;;26.40;14.45;;;;;;;-3.59;91.53;103159.88;5248713;28;20041;-76
2024/01/11 04:04:33;;;;;;;26.60;14.80;;;;;;;-3.63;92.54;103158.13;5253500;28;20584;-76
2024/01/11 04:07:05;;;;;;;25.85;14.65;;;;;;;-3.63;91.72;103163.25;5254060;28;20032;-76
2024/01/11 04:09:38;;;;;;;24.20;13.80;;;;;;;-3.61;93.85;103154.72;5254358;28;20375;-76
2024/01/11 04:12:10;;;;;;;25.55;14.63;;;;;;;-3.65;92.02;103154.69;5252231;28;20045;-76
2024/01/11 04:14:42;;;;;;;27.00;15.48;;;;;;;-3.75;91.78;103143.47;5252909;28;20028;-76
2024/01/11 04:17:14;;;;;;;28.00;14.68;;;;;;;-3.73;92.69;103160.56;5254593;28;20028;-76
2024/01/11 04:19:46;;;;;;;24.25;14.60;;;;;;;-3.74;92.56;103165.69;5253447;28;20459;-76
2024/01/11 04:22:17;;;;;;;24.30;15.35;;;;;;;-3.75;92.51;103179.31;5253548;28;20032;-76
2024/01/11 04:24:49;;;;;;;26.58;14.68;;;;;;;-3.74;92.97;103199.84;5253466;28;20044;-76
2024/01/11 04:27:21;;;;;;;24.92;15.15;;;;;;;-3.78;93.53;103194.66;5252268;28;20060;-76
2024/01/11 04:29:53;;;;;;;25.33;14.73;;;;;;;-3.83;93.56;103192.03;5253940;28;20029;-76
2024/01/11 04:32:25;;;;;;;26.67;15.40;;;;;;;-3.80;94.09;103178.41;5254076;28;20036;-76
2024/01/11 04:34:57;;;;;;;34.75;15.93;;;;;;;-3.78;94.09;103203.22;5255191;28;20032;-76
2024/01/11 04:37:29;;;;;;;25.15;15.40;;;;;;;-3.88;94.84;103196.25;5252792;28;20497;-76
2024/01/11 04:40:01;;;;;;;23.35;14.50;;;;;;;-3.82;93.73;103204.00;5254220;28;20116;-76
2024/01/11 04:42:33;;;;;;;23.95;14.07;;;;;;;-3.86;93.29;103199.69;5253967;28;20033;-76
2024/01/11 04:45:05;;;;;;;25.60;14.68;;;;;;;-3.83;93.63;103204.84;5252346;28;20043;-76
2024/01/11 04:47:37;;;;;;;27.15;15.27;;;;;;;-3.81;94.29;103212.56;5255405;28;20040;-76
2024/01/11 04:50:09;;;;;;;31.25;15.35;;;;;;;-3.85;94.53;103208.25;5258651;28;20042;-76
2024/01/11 04:52:41;;;;;;;25.92;15.07;;;;;;;-3.82;95.07;103209.13;5254576;28;20040;-76
2024/01/11 04:55:13;;;;;;;23.80;14.15;;;;;;;-3.84;94.60;103189.47;5257055;28;20054;-76
2024/01/11 04:57:45;;;;;;;24.15;14.38;;;;;;;-3.87;97.01;103190.28;5255621;28;20033;-76
2024/01/11 05:00:17;;;;;;;27.30;14.75;;;;;;;-3.85;97.63;103193.72;5256752;28;20029;-76
2024/01/11 05:02:49;;;;;;;25.40;14.70;;;;;;;-3.87;97.52;103203.06;5256557;28;20040;-76
2024/01/11 05:05:21;;;;;;;22.58;13.93;;;;;;;-3.83;97.48;103206.53;5254998;28;20048;-76
2024/01/11 05:07:53;;;;;;;25.48;14.50;;;;;;;-3.86;97.54;103203.94;5256225;28;20435;-76
2024/01/11 05:10:25;;;;;;;25.17;14.48;;;;;;;-3.86;97.56;103204.81;5257250;28;20033;-76
2024/01/11 05:12:57;;;;;;;24.58;14.55;;;;;;;-3.94;97.67;103198.72;5257934;28;20033;-76
2024/01/11 05:15:28;;;;;;;23.25;14.32;;;;;;;-3.96;97.15;103197.84;5257797;28;20024;-76
2024/01/11 05:18:00;;;;;;;25.00;14.40;;;;;;;-3.93;98.20;103214.13;5257239;28;20043;-76
2024/01/11 05:20:32;;;;;;;22.60;13.57;;;;;;;-3.96;97.91;103205.53;5257600;28;20029;-76
2024/01/11 05:23:05;;;;;;;22.85;14.70;;;;;;;-3.93;98.41;103224.34;5257188;28;20492;-76
2024/01/11 05:25:36;;;;;;;25.80;14.73;;;;;;;-3.95;99.23;103220.91;5256222;28;20509;-76
2024/01/11 05:28:08;;;;;;;21.60;13.32;;;;;;;-3.97;99.37;103224.28;5255325;28;20044;-76
2024/01/11 05:30:40;;;;;;;21.98;14.10;;;;;;;-4.01;100.00;103218.28;5256867;28;20044;-76
2024/01/11 05:33:12;;;;;;;24.92;13.95;;;;;;;-3.99;100.00;103237.06;5255313;28;20044;-76
2024/01/11 05:35:44;;;;;;;22.70;13.30;;;;;;;-4.01;100.00;103243.88;5252925;28;20039;-76
2024/01/11 05:38:16;;;;;;;25.17;14.63;;;;;;;-4.02;100.00;103231.88;5255523;28;20351;-76
2024/01/11 05:40:48;;;;;;;21.50;13.13;;;;;;;-4.03;100.00;103250.66;5257177;28;20036;-76
2024/01/11 05:43:20;;;;;;;22.00;14.10;;;;;;;-4.01;100.00;103248.13;5256711;28;20028;-76
2024/01/11 05:45:52;;;;;;;22.48;13.57;;;;;;;-4.11;100.00;103247.13;5254212;28;20487;-76
2024/01/11 05:48:24;;;;;;;21.92;14.18;;;;;;;-4.08;100.00;103267.66;5256242;28;20430;-76
2024/01/11 05:50:56;;;;;;;22.67;12.77;;;;;;;-4.10;100.00;103258.22;5270755;28;20048;-76
2024/01/11 05:53:28;;;;;;;22.33;14.10;;;;;;;-4.12;100.00;103247.13;5270197;28;20119;-76
2024/01/11 05:56:00;;;;;;;22.13;13.45;;;;;;;-4.13;100.00;103238.56;5256836;28;20538;-76
2024/01/11 05:58:32;;;;;;;21.33;13.35;;;;;;;-4.14;100.00;103241.97;5257133;28;20032;-76
2024/01/11 06:01:04;;;;;;;24.23;13.98;;;;;;;-4.15;100.00;103235.13;5255688;28;20028;-76
2024/01/11 06:03:37;;;;;;;22.17;13.25;;;;;;;-4.28;100.00;103236.66;5251771;28;20048;-76
2024/01/11 06:06:09;;;;;;;26.08;13.80;;;;;;;-4.24;100.00;103247.81;5248629;28;20609;-76
2024/01/11 06:08:43;;;;;;;24.00;13.85;;;;;;;-4.27;100.00;103258.84;5250916;28;20090;-76
2024/01/11 06:11:15;;;;;;;25.20;13.50;;;;;;;-4.30;100.00;103247.69;5254973;28;20025;-76
2024/01/11 06:13:47;;;;;;;24.58;13.60;;;;;;;-4.33;100.00;103261.28;5251415;28;20051;-76
2024/01/11 06:16:18;;;;;;;25.63;14.30;;;;;;;-4.33;100.00;103265.56;5254905;28;20029;-76
2024/01/11 06:18:50;;;;;;;20.48;13.10;;;;;;;-4.39;100.00;103276.56;5253567;28;20384;-76
2024/01/11 06:21:22;;;;;;;24.05;13.32;;;;;;;-4.34;100.00;103269.81;5259834;28;20029;-75
2024/01/11 06:23:54;;;;;;;23.42;13.32;;;;;;;-4.31;100.00;103280.09;5254499;28;20044;-75
2024/01/11 06:26:26;;;;;;;24.48;14.52;;;;;;;-4.36;100.00;103261.25;5249218;28;20389;-75
2024/01/11 06:28:58;;;;;;;30.15;13.85;;;;;;;-4.34;100.00;103272.38;5252661;28;20029;-75
2024/01/11 06:31:30;;;;;;;25.15;14.90;;;;;;;-4.31;100.00;103269.00;5254283;28;20041;-76
2024/01/11 06:34:02;;;;;;;27.02;15.07;;;;;;;-4.33;100.00;103276.66;5252633;28;20108;-75
2024/01/11 06:36:34;;;;;;;27.15;15.13;;;;;;;-4.32;100.00;103270.69;5252999;28;20056;-76
2024/01/11 06:39:06;;;;;;;23.90;15.35;;;;;;;-4.30;100.00;103276.69;5252130;28;20063;-75
2024/01/11 06:41:38;;;;;;;26.50;14.55;;;;;;;-4.41;100.00;103255.19;5255692;28;20398;-76
2024/01/11 06:44:10;;;;;;;25.67;15.30;;;;;;;-4.43;100.00;103260.31;5255077;28;20303;-75
2024/01/11 06:46:43;;;;;;;24.63;15.07;;;;;;;-4.41;100.00;103248.38;5267996;28;20407;-76
2024/01/11 06:49:15;;;;;;;24.27;14.35;;;;;;;-4.37;100.00;103274.88;5251971;28;20516;-76
2024/01/11 06:51:47;;;;;;;22.50;13.68;;;;;;;-4.50;100.00;103275.53;5253836;28;20047;-75
2024/01/11 06:54:19;;;;;;;22.90;13.45;;;;;;;-4.55;100.00;103270.31;5251821;28;20123;-75
2024/01/11 06:56:51;;;;;;;23.73;14.02;;;;;;;-4.53;100.00;103280.59;5251741;28;20391;-75
2024/01/11 06:59:23;;;;;;;24.38;13.75;;;;;;;-4.53;100.00;103283.16;5251663;28;20035;-76
2024/01/11 07:01:54;;;;;;;23.98;14.15;;;;;;;-4.53;100.00;103288.25;5252094;28;20020;-76
2024/01/11 07:04:26;;;;;;;25.92;15.00;;;;;;;-4.60;100.00;103282.16;5253711;28;20041;-76
2024/01/11 07:06:58;;;;;;;22.10;13.75;;;;;;;-4.56;100.00;103293.31;5253132;28;20390;-76
2024/01/11 07:09:30;;;;;;;23.45;14.23;;;;;;;-4.55;100.00;103289.91;5253465;28;20055;-76
2024/01/11 07:12:02;;;;;;;24.95;13.35;;;;;;;-4.62;100.00;103278.75;5253407;28;20031;-76
2024/01/11 07:14:35;;;;;;;26.42;14.32;;;;;;;-4.65;100.00;103274.44;5252718;28;20714;-76
2024/01/11 07:17:07;;;;;;;;;;;;;;;-4.11;100.00;103303.44;5247256;28;20036;-76
2024/01/11 07:19:39;;;;;;;22.52;12.60;;;;;;;-4.58;100.00;103305.19;5255196;28;20365;-76
2024/01/11 07:22:11;;;;;;;27.10;13.32;;;;;;;-4.59;100.00;103313.72;5254605;28;20031;-76
2024/01/11 07:24:43;;;;;;;25.70;13.25;;;;;;;-4.58;100.00;103315.44;5252496;28;20025;-76
2024/01/11 07:27:15;;;;;;;20.63;12.52;;;;;;;-4.56;100.00;103308.66;5253600;28;20527;-75
2024/01/11 07:29:47;;;;;;;23.50;13.77;;;;;;;-4.55;100.00;103315.50;5250953;28;20045;-75
2024/01/11 07:32:19;;;;;;;22.33;14.00;;;;;;;-4.55;100.00;103313.78;5254328;28;20025;-75
2024/01/11 07:34:51;;;;;;;24.90;12.90;;;;;;;-4.60;100.00;103307.75;5253760;28;20510;-75
2024/01/11 07:37:25;;;;;;;26.52;14.13;;;;;;;-4.60;100.00;103317.13;5253941;28;20815;-77
2024/01/11 07:39:57;;;;;;;21.52;12.30;;;;;;;-4.58;100.00;103316.31;5254978;28;20041;-76
2024/01/11 07:42:29;;;;;;;21.48;13.52;;;;;;;-4.58;100.00;103318.88;5253969;28;20043;-77
2024/01/11 07:45:01;;;;;;;23.48;13.20;;;;;;;-4.62;100.00;103304.31;5254776;28;20031;-76
2024/01/11 07:47:33;;;;;;;22.00;13.27;;;;;;;-4.53;100.00;103308.72;5251194;28;20036;-77
2024/01/11 07:50:12;;;;;;;19.83;11.85;;;;;;;-4.50;100.00;103308.78;5253563;28;20075;-77
2024/01/11 07:52:45;;;;;;;21.98;13.18;;;;;;;-4.54;100.00;103297.63;5254352;28;20029;-76
2024/01/11 07:55:17;;;;;;;17.10;10.48;;;;;;;-4.45;100.00;103297.78;5252381;28;20051;-77
2024/01/11 07:57:49;;;;;;;22.00;12.35;;;;;;;-4.52;100.00;103316.41;5253808;28;20159;-77
2024/01/11 08:00:21;;;;;;;23.58;13.45;;;;;;;-4.45;100.00;103314.84;5253653;28;20500;-75
2024/01/11 08:02:54;;;;;;;22.65;12.88;;;;;;;-4.45;100.00;103327.63;5252589;28;20025;-76
2024/01/11 08:05:26;;;;;;;25.67;12.77;;;;;;;-4.57;100.00;103312.94;5254275;28;20052;-76
2024/01/11 08:08:01;;;;;;;22.88;12.70;;;;;;;-4.50;100.00;103324.13;5253169;28;20025;-76
2024/01/11 08:10:33;;;;;;;22.73;13.43;;;;;;;-4.53;100.00;103295.94;5253839;28;20040;-76
2024/01/11 08:13:05;;;;;;;21.27;13.32;;;;;;;-4.37;100.00;103308.16;5252817;28;20246;-76
2024/01/11 08:15:37;;;;;;;22.58;12.48;;;;;;;-4.44;100.00;103298.63;5254588;28;20025;-76
2024/01/11 08:18:09;;;;;;;20.58;12.48;;;;;;;-4.39;100.00;103289.34;5254359;28;20036;-76
2024/01/11 08:20:41;;;;;;;19.17;12.07;;;;;;;-4.45;100.00;103279.88;5251537;28;20028;-76
2024/01/11 08:23:13;;;;;;;19.85;12.30;;;;;;;-4.32;100.00;103298.84;5257238;28;20432;-76
2024/01/11 08:25:45;;;;;;;23.92;14.27;;;;;;;-4.28;100.00;103286.94;5258956;28;20029;-76
2024/01/11 08:28:17;;;;;;;22.23;13.30;;;;;;;-4.28;100.00;103295.50;5258176;28;20035;-76
2024/01/11 08:30:49;;;;;;;27.02;14.73;;;;;;;-4.26;100.00;103292.97;5257499;28;20371;-76
2024/01/11 08:33:21;;;;;;;21.83;12.60;;;;;;;-4.24;100.00;103288.75;5258572;28;20028;-76
2024/01/11 08:35:53;;;;;;;19.42;12.32;;;;;;;-4.29;100.00;103282.69;5255838;28;20397;-76
2024/01/11 08:38:24;;;;;;;21.30;12.43;;;;;;;-4.25;100.00;103285.31;5256569;28;20043;-76
2024/01/11 08:40:56;;;;;;;20.38;12.43;;;;;;;-4.16;100.00;103300.81;5258636;28;20028;-76
2024/01/11 08:43:28;;;;;;;18.83;12.13;;;;;;;-4.18;100.00;103302.47;5257690;28;20029;-75
2024/01/11 08:46:01;;;;;;;23.75;13.30;;;;;;;-4.15;100.00;103304.25;5257349;28;20040;-76
2024/01/11 08:48:33;;;;;;;22.27;12.75;;;;;;;-4.05;100.00;103306.13;5256713;28;20032;-76
2024/01/11 08:51:06;;;;;;;21.58;12.85;;;;;;;-4.10;100.00;103284.69;5257804;28;20126;-76
2024/01/11 08:53:38;;;;;;;20.88;13.13;;;;;;;-4.07;100.00;103289.84;5256526;28;20387;-76
2024/01/11 08:56:10;;;;;;;19.38;11.57;;;;;;;-3.97;100.00;103299.41;5257063;28;20049;-76
2024/01/11 08:58:42;;;;;;;20.88;12.05;;;;;;;-3.91;100.00;103303.75;5253620;28;20032;-76
2024/01/11 09:01:15;;;;;;;26.50;12.77;;;;;;;-3.88;100.00;103311.47;5258443;28;20048;-77
2024/01/11 09:03:47;;;;;;;21.48;13.13;;;;;;;-3.81;100.00;103327.81;5257848;28;20041;-76
2024/01/11 09:06:19;;;;;;;24.10;12.80;;;;;;;-3.74;100.00;103339.88;5256352;28;20758;-76
2024/01/11 09:08:52;;;;;;;21.08;12.73;;;;;;;-3.79;100.00;103321.88;5256308;28;20044;-76
2024/01/11 09:11:24;;;;;;;21.17;12.13;;;;;;;-3.70;100.00;103334.81;5257583;28;20041;-76
2024/01/11 09:13:57;;;;;;;21.80;13.15;;;;;;;-3.77;100.00;103322.75;5256995;28;20113;-76
2024/01/11 09:16:28;;;;;;;20.27;12.48;;;;;;;-3.63;100.00;103346.00;5271234;28;20032;-76
2024/01/11 09:19:00;;;;;;;23.80;13.95;;;;;;;-3.60;100.00;103334.94;5272251;28;20049;-76
2024/01/11 09:21:32;;;;;;;23.20;13.40;;;;;;;-3.64;100.00;103328.91;5258015;28;20367;-76
2024/01/11 09:24:04;;;;;;;20.58;13.13;;;;;;;-3.49;100.00;103343.63;5257920;28;20028;-76
2024/01/11 09:26:36;;;;;;;21.88;13.40;;;;;;;-3.45;100.00;103330.91;5257566;28;20024;-76
2024/01/11 09:29:08;;;;;;;20.02;13.35;;;;;;;-3.37;100.00;103351.50;5264480;28;20029;-76
2024/01/11 09:31:42;;;;;;;22.35;13.43;;;;;;;-3.31;100.00;103343.88;5257469;28;20029;-76
2024/01/11 09:34:14;;;;;;;19.92;13.02;;;;;;;-3.26;100.00;103347.38;5256940;28;20048;-76
2024/01/11 09:36:46;;;;;;;20.85;14.10;;;;;;;-3.27;100.00;103342.22;5257599;28;20028;-76
2024/01/11 09:39:18;;;;;;;22.30;13.50;;;;;;;-3.19;100.00;103366.25;5257373;28;20702;-76
2024/01/11 09:41:57;;;;;;;20.58;14.20;;;;;;;-3.14;100.00;103362.06;5255837;28;20394;-76
2024/01/11 09:44:30;;;;;;;20.85;13.40;;;;;;;-3.12;100.00;103362.06;5253397;28;20029;-76
2024/01/11 09:47:03;;;;;;;22.60;13.77;;;;;;;-3.10;100.00;103365.53;5253665;28;20033;-76
2024/01/11 09:49:37;;;;;;;;;;;;;;;-2.60;100.00;103378.94;5257936;28;20053;-76
2024/01/11 09:52:13;;;;;;;22.63;14.13;;;;;;;-2.89;100.00;103370.03;5258150;28;19912;-76
2024/01/11 09:54:45;;;;;;;23.00;14.25;;;;;;;-2.81;100.00;103389.78;5255523;28;20036;-76
2024/01/11 09:57:24;;;;;;;21.20;13.85;;;;;;;-2.74;100.00;103383.88;5271397;28;21007;-76
2024/01/11 09:59:57;;;;;;;22.40;14.82;;;;;;;-2.71;100.00;103395.91;5257457;28;20037;-76
2024/01/11 10:02:29;;;;;;;25.00;14.88;;;;;;;-2.65;100.00;103393.41;5256528;28;20021;-76
2024/01/11 10:05:01;;;;;;;26.63;14.40;;;;;;;-2.61;100.00;103394.31;5257340;28;20024;-76
2024/01/11 10:07:34;;;;;;;22.15;14.55;;;;;;;-2.63;100.00;103373.75;5256911;28;20029;-76
2024/01/11 10:10:07;;;;;;;26.40;14.30;;;;;;;-2.49;100.00;103386.75;5253011;28;20036;-76
2024/01/11 10:12:39;;;;;;;23.38;14.38;;;;;;;-2.40;100.00;103391.97;5255987;28;20037;-76
2024/01/11 10:15:11;;;;;;;24.70;14.50;;;;;;;-2.31;100.00;103397.19;5256489;28;20320;-77
2024/01/11 10:17:44;;;;;;;23.50;14.98;;;;;;;-2.26;100.00;103382.69;5254762;28;20033;-76
2024/01/11 10:20:16;;;;;;;27.88;15.07;;;;;;;-2.10;100.00;103391.38;5254729;28;20462;-77
2024/01/11 10:22:48;;;;;;;22.48;14.52;;;;;;;-2.04;100.00;103399.16;5254589;28;20325;-77
2024/01/11 10:25:20;;;;;;;24.77;15.27;;;;;;;-1.98;100.00;103398.34;5257054;28;20029;-77
2024/01/11 10:27:52;;;;;;;22.10;14.25;;;;;;;-1.93;100.00;103386.41;5254630;28;20036;-77
2024/01/11 10:30:26;;;;;;;23.52;14.65;;;;;;;-1.81;100.00;103394.22;5256285;28;20045;-77
2024/01/11 10:32:58;;;;;;;;;;;;;;;-1.37;100.00;103396.19;5255496;28;20044;-77
2024/01/11 10:35:29;;;;;;;22.85;13.82;;;;;;;-1.60;100.00;103400.34;5252483;28;20015;-77
2024/01/11 10:38:06;;;;;;;22.75;14.60;;;;;;;-1.54;100.00;103392.69;5254825;28;20405;-77
2024/01/11 10:40:40;;;;;;;24.55;15.70;;;;;;;-1.49;100.00;103402.13;5260607;28;20041;-77
2024/01/11 10:43:15;;;;;;;21.88;14.73;;;;;;;-1.49;100.00;103384.13;5263866;28;20021;-77
2024/01/11 10:45:53;;;;;;;24.23;15.40;;;;;;;-1.37;100.00;103403.06;5259700;28;20055;-77
2024/01/11 10:48:27;;;;;;;23.10;15.80;;;;;;;-1.29;100.00;103409.09;5253718;28;20041;-77
2024/01/11 10:51:01;;;;;;;27.13;16.23;;;;;;;-1.20;100.00;103393.75;5256446;28;20045;-77
2024/01/11 10:53:45;;;;;;;22.77;15.23;;;;;;;-0.99;100.00;103400.69;5253953;28;20064;-76
2024/01/11 10:56:19;;;;;;;22.90;15.43;;;;;;;-1.05;100.00;103392.97;5255107;28;20043;-77
2024/01/11 10:58:52;;;;;;;25.15;16.17;;;;;;;-0.99;97.28;103392.97;5254303;28;20037;-77
2024/01/11 11:01:24;;;;;;;26.58;17.00;;;;;;;-0.92;96.64;103394.72;5253779;28;20036;-77
2024/01/11 11:03:57;;;;;;;27.77;16.25;;;;;;;-0.82;92.97;103387.91;5253647;28;20417;-77
2024/01/11 11:06:30;;;;;;;25.45;16.13;;;;;;;-0.71;91.28;103385.38;5254083;28;20029;-77
2024/01/11 11:09:04;;;;;;;25.60;16.77;;;;;;;-0.65;89.27;103383.66;5256388;28;20028;-77
2024/01/11 11:11:36;;;;;;;25.05;15.93;;;;;;;-0.55;89.90;103382.84;5253105;28;20028;-77
2024/01/11 11:14:09;;;;;;;22.67;16.73;;;;;;;-0.53;86.16;103391.44;5253112;28;20041;-77
2024/01/11 11:16:42;;;;;;;25.30;16.67;;;;;;;-0.44;85.69;103405.19;5254658;28;20036;-78
2024/01/11 11:19:15;;;;;;;22.98;15.20;;;;;;;-0.40;81.80;103400.03;5251977;28;20032;-77
2024/01/11 11:21:48;;;;;;;24.63;16.25;;;;;;;-0.28;80.19;103407.78;5253255;28;20033;-77
2024/01/11 11:24:20;;;;;;;24.90;15.98;;;;;;;-0.32;82.02;103385.44;5253573;28;20389;-78
2024/01/11 11:26:51;;;;;;;23.38;15.75;;;;;;;-0.25;81.16;103399.22;5252514;28;20025;-77
2024/01/11 11:29:24;;;;;;;27.08;15.15;;;;;;;-0.18;79.00;103410.38;5255630;28;20044;-77